createdAt,value
2022-11-14T00:01:12.330Z,21.36
2022-11-14T00:03:39.078Z,21.59
2022-11-14T00:06:06.533Z,21.56
2022-11-14T00:08:33.316Z,21.72
2022-11-14T00:11:00.344Z,21.80
2022-11-14T00:13:27.130Z,21.71
2022-11-14T00:15:54.296Z,21.97
2022-11-14T00:18:21.079Z,21.10
2022-11-14T00:20:47.836Z,19.15
2022-11-14T00:23:14.633Z,17.56
2022-11-14T00:25:41.371Z,19.29
2022-11-14T00:28:08.192Z,20.37
2022-11-14T00:30:34.972Z,21.03
2022-11-14T00:33:01.722Z,21.05
2022-11-14T00:35:28.483Z,21.36
2022-11-14T00:37:55.261Z,21.37
2022-11-14T00:40:22.020Z,21.48
2022-11-14T00:42:48.781Z,21.51
2022-11-14T00:45:15.571Z,21.60
2022-11-14T00:47:42.345Z,21.66
2022-11-14T00:50:09.140Z,21.75
2022-11-14T00:52:35.939Z,21.79
2022-11-14T00:55:02.696Z,21.88
2022-11-14T00:57:29.443Z,22.03
2022-11-14T00:59:56.219Z,20.45
2022-11-14T01:02:22.967Z,19.20
2022-11-14T01:04:49.706Z,18.85
2022-11-14T01:07:16.487Z,19.68
2022-11-14T01:09:43.227Z,20.75
2022-11-14T01:12:09.988Z,21.09
2022-11-14T01:14:36.756Z,21.37
2022-11-14T01:17:03.512Z,21.45
2022-11-14T01:19:30.289Z,21.51
2022-11-14T01:21:59.572Z,21.47
2022-11-14T01:24:28.496Z,21.65
2022-11-14T01:26:55.633Z,21.66
2022-11-14T01:29:22.419Z,21.76
2022-11-14T01:31:49.218Z,21.84
2022-11-14T01:34:15.978Z,21.95
2022-11-14T01:36:42.758Z,22.05
2022-11-14T01:39:09.643Z,20.03
2022-11-14T01:41:36.494Z,19.00
2022-11-14T01:44:03.265Z,19.00
2022-11-14T01:46:30.026Z,19.86
2022-11-14T01:48:56.777Z,20.96
2022-11-14T01:51:23.553Z,21.17
2022-11-14T01:53:50.296Z,21.45
2022-11-14T01:56:17.055Z,21.51
2022-11-14T01:58:43.840Z,21.47
2022-11-14T02:01:10.651Z,21.62
2022-11-14T02:03:37.468Z,21.61
2022-11-14T02:06:04.255Z,21.66
2022-11-14T02:08:31.387Z,21.87
2022-11-14T02:10:58.379Z,21.90
2022-11-14T02:13:25.165Z,21.98
2022-11-14T02:15:51.948Z,22.01
2022-11-14T02:18:18.706Z,20.60
2022-11-14T02:20:45.463Z,19.01
2022-11-14T02:23:12.293Z,18.74
2022-11-14T02:25:39.078Z,19.69
2022-11-14T02:28:05.861Z,20.67
2022-11-14T02:30:32.667Z,21.28
2022-11-14T02:33:14.773Z,21.31
2022-11-14T02:35:41.564Z,21.43
2022-11-14T02:38:08.363Z,21.57
2022-11-14T02:40:35.123Z,21.58
2022-11-14T02:43:01.900Z,21.80
2022-11-14T02:45:28.645Z,21.91
2022-11-14T02:47:55.411Z,21.89
2022-11-14T02:50:22.191Z,21.97
2022-11-14T02:52:49.100Z,21.85
2022-11-14T02:55:15.852Z,19.84
2022-11-14T02:57:42.616Z,18.21
2022-11-14T03:00:14.614Z,18.78
2022-11-14T03:02:42.060Z,19.84
2022-11-14T03:05:08.851Z,20.60
2022-11-14T03:07:35.734Z,21.11
2022-11-14T03:10:02.606Z,21.17
2022-11-14T03:12:29.383Z,21.31
2022-11-14T03:14:56.134Z,21.56
2022-11-14T03:17:24.536Z,21.63
2022-11-14T03:19:51.434Z,21.57
2022-11-14T03:22:18.236Z,21.79
2022-11-14T03:24:45.005Z,21.81
2022-11-14T03:27:11.838Z,21.80
2022-11-14T03:29:38.584Z,22.03
2022-11-14T03:32:05.341Z,21.94
2022-11-14T03:34:32.166Z,20.96
2022-11-14T03:37:00.265Z,18.84
2022-11-14T03:39:27.012Z,17.49
2022-11-14T03:41:53.764Z,19.31
2022-11-14T03:44:20.520Z,20.35
2022-11-14T03:46:47.337Z,20.83
2022-11-14T03:49:14.101Z,21.12
2022-11-14T03:51:40.848Z,21.08
2022-11-14T03:54:07.609Z,21.48
2022-11-14T03:56:34.380Z,21.37
2022-11-14T03:59:01.144Z,21.60
2022-11-14T04:01:29.096Z,21.62
2022-11-14T04:03:55.866Z,21.81
2022-11-14T04:06:22.676Z,21.93
2022-11-14T04:08:49.456Z,21.74
2022-11-14T04:11:16.241Z,21.95
2022-11-14T04:13:42.989Z,20.46
2022-11-14T04:16:09.774Z,18.66
2022-11-14T04:18:36.536Z,17.65
2022-11-14T04:21:03.322Z,19.33
2022-11-14T04:23:30.079Z,20.39
2022-11-14T04:25:56.854Z,20.81
2022-11-14T04:28:23.785Z,21.10
2022-11-14T04:30:50.558Z,21.28
2022-11-14T04:33:17.323Z,21.33
2022-11-14T04:35:44.075Z,21.39
2022-11-14T04:38:10.837Z,21.65
2022-11-14T04:40:37.610Z,21.69
2022-11-14T04:43:04.404Z,21.68
2022-11-14T04:45:31.247Z,21.68
2022-11-14T04:47:58.082Z,22.13
2022-11-14T04:50:24.884Z,19.14
2022-11-14T04:52:51.736Z,17.05
2022-11-14T04:55:18.503Z,17.47
2022-11-14T04:57:45.248Z,19.54
2022-11-14T05:00:12.086Z,20.20
2022-11-14T05:02:38.982Z,20.76
2022-11-14T05:05:05.805Z,20.83
2022-11-14T05:07:33.799Z,20.91
2022-11-14T05:10:00.640Z,21.38
2022-11-14T05:12:27.388Z,21.47
2022-11-14T05:14:54.137Z,21.46
2022-11-14T05:17:20.908Z,21.56
2022-11-14T05:19:47.731Z,21.62
2022-11-14T05:22:14.490Z,21.77
2022-11-14T05:24:41.250Z,21.85
2022-11-14T05:27:08.138Z,21.95
2022-11-14T05:29:34.923Z,21.83
2022-11-14T05:32:01.836Z,21.29
2022-11-14T05:34:28.685Z,17.89
2022-11-14T05:36:55.555Z,17.46
2022-11-14T05:39:22.333Z,19.52
2022-11-14T05:41:49.100Z,20.39
2022-11-14T05:44:15.869Z,21.11
2022-11-14T05:46:42.641Z,21.16
2022-11-14T05:49:09.393Z,21.26
2022-11-14T05:51:36.152Z,21.39
2022-11-14T05:54:02.937Z,21.51
2022-11-14T05:56:29.699Z,21.62
2022-11-14T05:58:56.459Z,21.66
2022-11-14T06:01:23.281Z,21.86
2022-11-14T06:03:50.048Z,21.81
2022-11-14T06:06:16.825Z,21.92
2022-11-14T06:08:43.627Z,21.92
2022-11-14T06:11:10.384Z,19.01
2022-11-14T06:13:37.135Z,17.27
2022-11-14T06:16:04.036Z,18.47
2022-11-14T06:18:31.149Z,20.01
2022-11-14T06:20:58.111Z,20.77
2022-11-14T06:23:25.186Z,21.17
2022-11-14T06:25:51.987Z,21.29
2022-11-14T06:28:18.727Z,21.44
2022-11-14T06:30:45.498Z,21.61
2022-11-14T06:33:12.267Z,21.60
2022-11-14T06:35:39.024Z,21.69
2022-11-14T06:38:05.827Z,21.66
2022-11-14T06:40:32.575Z,21.76
2022-11-14T06:42:59.369Z,21.90
2022-11-14T06:45:26.164Z,20.22
2022-11-14T06:47:52.916Z,17.80
2022-11-14T06:50:19.681Z,17.10
2022-11-14T06:52:46.430Z,18.89
2022-11-14T06:55:13.227Z,20.06
2022-11-14T06:57:40.025Z,20.64
2022-11-14T07:00:06.787Z,21.05
2022-11-14T07:02:33.595Z,21.03
2022-11-14T07:05:00.395Z,21.29
2022-11-14T07:07:28.871Z,21.56
2022-11-14T07:09:56.499Z,21.49
2022-11-14T07:12:23.244Z,21.60
2022-11-14T07:14:50.009Z,21.75
2022-11-14T07:17:16.786Z,21.65
2022-11-14T07:19:43.559Z,21.66
2022-11-14T07:22:10.330Z,21.88
2022-11-14T07:24:37.101Z,21.87
2022-11-14T07:27:08.510Z,22.00
2022-11-14T07:29:35.307Z,21.44
2022-11-14T07:32:02.055Z,17.99
2022-11-14T07:34:28.812Z,17.12
2022-11-14T07:36:55.657Z,19.05
2022-11-14T07:39:22.453Z,20.18
2022-11-14T07:41:49.228Z,20.55
2022-11-14T07:44:16.015Z,20.97
2022-11-14T07:46:43.415Z,21.10
2022-11-14T07:49:10.201Z,21.27
2022-11-14T07:51:38.138Z,21.50
2022-11-14T07:54:04.932Z,21.64
2022-11-14T07:56:31.683Z,21.56
2022-11-14T07:58:58.491Z,21.70
2022-11-14T08:01:25.290Z,21.95
2022-11-14T08:03:52.128Z,21.92
2022-11-14T08:06:18.895Z,21.91
2022-11-14T08:08:45.689Z,22.10
2022-11-14T08:11:12.534Z,19.05
2022-11-14T08:13:39.336Z,17.58
2022-11-14T08:16:12.034Z,18.71
2022-11-14T08:18:39.613Z,20.29
2022-11-14T08:21:06.412Z,20.93
2022-11-14T08:23:33.186Z,21.13
2022-11-14T08:25:59.965Z,21.19
2022-11-14T08:28:28.343Z,21.57
2022-11-14T08:30:55.433Z,21.82
2022-11-14T08:33:22.197Z,21.92
2022-11-14T08:35:48.968Z,21.84
2022-11-14T08:38:15.714Z,21.83
2022-11-14T08:40:43.027Z,22.04
2022-11-14T08:43:11.572Z,21.98
2022-11-14T08:45:38.369Z,20.67
2022-11-14T08:48:05.746Z,17.85
2022-11-14T08:50:32.583Z,18.47
2022-11-14T08:52:59.358Z,20.17
2022-11-14T08:55:26.112Z,20.99
2022-11-14T08:57:52.894Z,21.17
2022-11-14T09:00:19.658Z,21.28
2022-11-14T09:02:47.004Z,21.54
2022-11-14T09:05:13.815Z,21.45
2022-11-14T09:07:40.663Z,21.72
2022-11-14T09:10:07.447Z,21.83
2022-11-14T09:12:34.383Z,21.86
2022-11-14T09:15:01.165Z,21.90
2022-11-14T09:17:28.032Z,22.13
2022-11-14T09:19:55.644Z,19.47
2022-11-14T09:22:22.448Z,17.86
2022-11-14T09:24:49.465Z,19.17
2022-11-14T09:27:17.095Z,20.43
2022-11-14T09:29:43.988Z,20.98
2022-11-14T09:32:10.899Z,21.31
2022-11-14T09:34:37.687Z,21.46
2022-11-14T09:37:04.443Z,21.55
2022-11-14T09:39:31.247Z,21.80
2022-11-14T09:41:58.041Z,21.90
2022-11-14T09:44:24.833Z,21.84
2022-11-14T09:46:51.664Z,21.74
2022-11-14T09:49:18.416Z,22.04
2022-11-14T09:51:45.276Z,20.73
2022-11-14T09:54:12.074Z,17.81
2022-11-14T09:56:38.844Z,16.86
2022-11-14T09:59:05.601Z,19.02
2022-11-14T10:01:32.405Z,20.26
2022-11-14T10:03:59.310Z,20.85
2022-11-14T10:06:26.163Z,21.02
2022-11-14T10:08:52.977Z,21.37
2022-11-14T10:11:19.759Z,21.32
2022-11-14T10:13:46.509Z,21.45
2022-11-14T10:16:13.274Z,21.58
2022-11-14T10:18:40.054Z,21.69
2022-11-14T10:21:07.890Z,21.89
2022-11-14T10:23:34.656Z,21.92
2022-11-14T10:26:01.428Z,21.94
2022-11-14T10:28:28.422Z,20.33
2022-11-14T10:30:55.364Z,17.42
2022-11-14T10:33:22.127Z,16.99
2022-11-14T10:35:50.400Z,19.33
2022-11-14T10:38:17.148Z,20.29
2022-11-14T10:40:43.916Z,20.94
2022-11-14T10:43:10.663Z,21.14
2022-11-14T10:45:38.167Z,21.16
2022-11-14T10:48:04.933Z,21.39
2022-11-14T10:50:31.795Z,21.57
2022-11-14T10:52:59.063Z,21.60
2022-11-14T10:55:49.681Z,21.57
2022-11-14T10:58:12.903Z,21.77
2022-11-14T11:00:39.770Z,21.81
2022-11-14T11:03:07.517Z,21.93
2022-11-14T11:05:34.302Z,22.13
2022-11-14T11:11:25.478Z,17.17
2022-11-14T11:13:52.259Z,18.99
2022-11-14T11:16:19.007Z,20.11
2022-11-14T11:18:50.564Z,20.85
2022-11-14T11:21:17.673Z,21.09
2022-11-14T11:23:44.513Z,21.07
2022-11-14T11:26:11.482Z,21.44
2022-11-14T11:28:38.344Z,21.67
2022-11-14T11:31:05.118Z,21.60
2022-11-14T11:33:32.147Z,21.94
2022-11-14T11:35:59.225Z,21.93
2022-11-14T11:38:25.993Z,21.86
2022-11-14T11:40:52.749Z,21.98
2022-11-14T11:46:06.292Z,17.17
2022-11-14T11:48:33.151Z,18.01
2022-11-14T11:50:59.900Z,19.75
2022-11-14T11:53:26.655Z,20.49
2022-11-14T11:55:53.429Z,20.98
2022-11-14T11:58:20.388Z,21.25
2022-11-14T12:00:47.165Z,21.48
2022-11-14T12:03:14.321Z,21.62
2022-11-14T12:05:46.691Z,21.52
2022-11-14T12:08:18.534Z,21.71
2022-11-14T12:10:47.923Z,21.65
2022-11-14T12:13:14.715Z,21.94
2022-11-14T12:15:41.653Z,21.88
2022-11-14T12:18:08.447Z,21.18
2022-11-14T12:20:35.333Z,17.70
2022-11-14T12:23:02.322Z,17.70
2022-11-14T12:25:29.089Z,19.58
2022-11-14T12:27:55.896Z,20.46
2022-11-14T12:30:22.904Z,21.03
2022-11-14T12:32:49.688Z,21.18
2022-11-14T12:35:16.674Z,21.33
2022-11-14T12:37:43.515Z,21.51
2022-11-14T12:40:10.317Z,21.73
2022-11-14T12:42:37.072Z,21.73
2022-11-14T12:45:03.847Z,21.82
2022-11-14T12:47:30.622Z,21.85
2022-11-14T12:49:57.430Z,22.09
2022-11-14T12:52:24.175Z,19.27
2022-11-14T12:54:51.252Z,17.22
2022-11-14T12:57:37.979Z,18.41
2022-11-14T13:00:04.827Z,20.00
2022-11-14T13:02:31.588Z,20.71
2022-11-14T13:04:58.338Z,21.12
2022-11-14T13:07:33.903Z,21.17
2022-11-14T13:10:01.209Z,21.38
2022-11-14T13:12:47.018Z,21.59
2022-11-14T13:15:32.280Z,21.81
2022-11-14T13:18:17.520Z,21.72
2022-11-14T13:21:02.792Z,21.77
2022-11-14T13:23:30.026Z,21.95
2022-11-14T13:25:56.945Z,19.42
2022-11-14T13:28:25.080Z,17.43
2022-11-14T13:30:52.023Z,18.41
2022-11-14T13:33:18.774Z,20.07
2022-11-14T13:35:45.730Z,20.71
2022-11-14T13:38:12.492Z,20.99
2022-11-14T13:40:39.247Z,21.26
2022-11-14T13:43:06.027Z,21.25
2022-11-14T13:45:32.787Z,21.62
2022-11-14T13:47:59.635Z,21.59
2022-11-14T13:50:26.434Z,21.60
2022-11-14T13:52:53.216Z,21.95
2022-11-14T13:55:19.963Z,21.81
2022-11-14T13:57:46.726Z,21.91
2022-11-14T14:00:18.627Z,18.75
2022-11-14T14:02:46.803Z,16.80
2022-11-14T14:05:13.625Z,18.06
2022-11-14T14:07:40.383Z,19.59
2022-11-14T14:10:07.146Z,20.34
2022-11-14T14:12:33.905Z,20.73
2022-11-14T14:15:00.675Z,21.03
2022-11-14T14:17:27.464Z,21.25
2022-11-14T14:19:54.241Z,21.38
2022-11-14T14:22:21.097Z,21.44
2022-11-14T14:24:47.870Z,21.54
2022-11-14T14:27:14.625Z,21.75
2022-11-14T14:29:41.380Z,21.76
2022-11-14T14:32:08.156Z,21.81
2022-11-14T14:34:34.904Z,22.03
2022-11-14T14:37:01.889Z,21.93
2022-11-14T14:39:28.664Z,21.99
2022-11-14T14:41:55.417Z,21.25
2022-11-14T14:44:22.280Z,18.41
2022-11-14T14:46:49.037Z,17.18
2022-11-14T14:49:15.863Z,18.95
2022-11-14T14:51:44.373Z,20.14
2022-11-14T14:54:11.129Z,20.87
2022-11-14T14:56:37.870Z,21.17
2022-11-14T14:59:04.651Z,21.28
2022-11-14T15:01:31.406Z,21.36
2022-11-14T15:03:58.185Z,21.47
2022-11-14T15:06:29.715Z,21.58
2022-11-14T15:11:25.442Z,21.81
2022-11-14T15:13:54.099Z,21.96
2022-11-14T15:16:21.183Z,22.19
2022-11-14T15:18:47.955Z,20.51
2022-11-14T15:21:14.789Z,17.58
2022-11-14T15:23:41.647Z,16.81
2022-11-14T15:26:08.408Z,19.02
2022-11-14T15:28:35.284Z,20.08
2022-11-14T15:31:02.069Z,20.61
2022-11-14T15:33:28.976Z,21.00
2022-11-14T15:35:55.798Z,21.23
2022-11-14T15:38:43.182Z,21.32
2022-11-14T15:41:09.671Z,21.56
2022-11-14T15:43:39.546Z,21.73
2022-11-14T15:46:08.305Z,21.63
2022-11-14T15:48:38.133Z,21.69
2022-11-14T15:51:04.960Z,21.87
2022-11-14T15:53:33.101Z,22.01
2022-11-14T15:56:00.279Z,19.59
2022-11-14T15:58:28.593Z,17.23
2022-11-14T16:00:56.135Z,17.32
2022-11-14T16:03:22.980Z,19.32
2022-11-14T16:05:49.816Z,20.24
2022-11-14T16:08:16.591Z,20.84
2022-11-14T16:10:43.369Z,21.10
2022-11-14T16:13:11.125Z,21.12
2022-11-14T16:15:37.889Z,21.34
2022-11-14T16:18:04.650Z,21.49
2022-11-14T16:20:36.045Z,21.68
2022-11-14T16:23:03.239Z,21.58
2022-11-14T16:25:29.995Z,21.67
2022-11-14T16:27:56.751Z,21.74
2022-11-14T16:30:23.536Z,21.94
2022-11-14T16:32:50.299Z,21.94
2022-11-14T16:35:17.058Z,20.18
2022-11-14T16:37:43.815Z,17.60
2022-11-14T16:40:10.586Z,16.90
2022-11-14T16:42:37.344Z,19.12
2022-11-14T16:45:04.136Z,20.31
2022-11-14T16:47:32.740Z,20.75
2022-11-14T16:50:00.169Z,21.33
2022-11-14T16:52:26.998Z,21.22
2022-11-14T16:54:53.784Z,21.32
2022-11-14T16:57:20.584Z,21.50
2022-11-14T16:59:47.864Z,21.69
2022-11-14T17:02:15.711Z,21.51
2022-11-14T17:04:42.521Z,21.73
2022-11-14T17:07:09.338Z,21.77
2022-11-14T17:09:36.163Z,21.72
2022-11-14T17:12:02.917Z,21.90
2022-11-14T17:14:29.728Z,21.94
2022-11-14T17:16:56.566Z,18.61
2022-11-14T17:19:23.350Z,16.95
2022-11-14T17:21:50.123Z,18.14
2022-11-14T17:24:16.926Z,19.68
2022-11-14T17:26:43.803Z,20.49
2022-11-14T17:29:12.636Z,20.98
2022-11-14T17:31:42.098Z,21.17
2022-11-14T17:34:12.632Z,21.25
2022-11-14T17:36:39.472Z,21.40
2022-11-14T17:39:06.305Z,21.77
2022-11-14T17:41:33.909Z,21.54
2022-11-14T17:44:02.489Z,21.79
2022-11-14T17:46:29.349Z,21.70
2022-11-14T17:48:56.132Z,21.77
2022-11-14T17:51:22.905Z,21.86
2022-11-14T17:53:49.679Z,22.06
2022-11-14T17:56:16.436Z,22.07
2022-11-14T17:58:43.269Z,19.70
2022-11-14T18:01:10.106Z,17.37
2022-11-14T18:03:37.039Z,17.45
2022-11-14T18:06:03.794Z,19.44
2022-11-14T18:08:30.959Z,20.34
2022-11-14T18:10:58.479Z,20.79
2022-11-14T18:13:25.231Z,21.12
2022-11-14T18:15:52.008Z,21.47
2022-11-14T18:18:20.176Z,21.33
2022-11-14T18:20:47.080Z,21.50
2022-11-14T18:23:13.877Z,21.56
2022-11-14T18:25:40.690Z,21.60
2022-11-14T18:28:07.426Z,21.74
2022-11-14T18:30:41.465Z,21.91
2022-11-14T18:33:08.976Z,21.97
2022-11-14T18:35:35.816Z,21.87
2022-11-14T18:38:02.570Z,18.31
2022-11-14T18:40:29.349Z,17.20
2022-11-14T18:42:56.187Z,19.00
2022-11-14T18:45:22.951Z,20.26
2022-11-14T18:47:49.704Z,20.76
2022-11-14T18:50:16.477Z,21.16
2022-11-14T18:52:43.228Z,21.18
2022-11-14T18:55:10.038Z,21.38
2022-11-14T18:57:36.860Z,21.78
2022-11-14T19:00:03.802Z,21.80
2022-11-14T19:02:30.741Z,21.67
2022-11-14T19:04:57.573Z,21.81
2022-11-14T19:07:25.959Z,21.76
2022-11-14T19:09:52.934Z,22.00
2022-11-14T19:12:21.785Z,22.06
2022-11-14T19:14:50.409Z,19.76
2022-11-14T19:17:20.666Z,17.82
2022-11-14T19:19:47.826Z,18.88
2022-11-14T19:22:14.604Z,20.40
2022-11-14T19:24:42.963Z,20.85
2022-11-14T19:27:09.792Z,21.23
2022-11-14T19:29:36.584Z,21.28
2022-11-14T19:32:03.324Z,21.57
2022-11-14T19:34:30.188Z,21.60
2022-11-14T19:37:01.227Z,21.83
2022-11-14T19:39:28.251Z,21.84
2022-11-14T19:41:55.022Z,21.85
2022-11-14T19:44:21.842Z,21.96
2022-11-14T19:46:48.617Z,21.56
2022-11-14T19:49:15.406Z,18.09
2022-11-14T19:51:42.208Z,17.10
2022-11-14T19:54:09.152Z,19.05
2022-11-14T19:56:35.952Z,20.06
2022-11-14T19:59:02.737Z,21.03
2022-11-14T20:01:29.662Z,21.13
2022-11-14T20:03:56.507Z,21.14
2022-11-14T20:06:23.368Z,21.32
2022-11-14T20:08:50.238Z,21.40
2022-11-14T20:11:17.028Z,21.72
2022-11-14T20:13:44.063Z,21.68
2022-11-14T20:16:10.850Z,21.73
2022-11-14T20:18:37.796Z,21.98
2022-11-14T20:21:04.699Z,22.05
2022-11-14T20:23:31.802Z,22.00
2022-11-14T20:25:58.838Z,18.90
2022-11-14T20:28:25.608Z,17.50
2022-11-14T20:30:52.376Z,18.34
2022-11-14T20:33:19.169Z,19.87
2022-11-14T20:35:45.964Z,20.63
2022-11-14T20:38:12.715Z,21.03
2022-11-14T20:40:39.527Z,21.04
2022-11-14T20:43:07.192Z,21.27
2022-11-14T20:45:33.984Z,21.58
2022-11-14T20:48:00.763Z,21.59
2022-11-14T20:50:27.551Z,21.85
2022-11-14T20:52:54.340Z,21.83
2022-11-14T20:55:21.127Z,21.97
2022-11-14T20:57:47.907Z,22.05
2022-11-14T21:00:14.675Z,22.20
2022-11-14T21:02:41.454Z,18.77
2022-11-14T21:05:08.244Z,17.69
2022-11-14T21:07:35.052Z,19.37
2022-11-14T21:10:20.688Z,20.56
2022-11-14T21:13:07.414Z,21.19
2022-11-14T21:15:34.266Z,21.46
2022-11-14T21:18:01.034Z,21.70
2022-11-14T21:20:27.788Z,21.68
2022-11-14T21:22:54.571Z,21.68
2022-11-14T21:25:21.319Z,21.67
2022-11-14T21:30:14.902Z,21.92
2022-11-14T21:32:41.664Z,21.85
2022-11-14T21:35:09.818Z,21.25
2022-11-14T21:37:36.788Z,17.87
2022-11-14T21:40:03.551Z,17.92
2022-11-14T21:42:30.316Z,19.91
2022-11-14T21:44:57.077Z,20.60
2022-11-14T21:47:23.815Z,21.10
2022-11-14T21:50:00.788Z,21.29
2022-11-14T21:52:27.995Z,21.53
2022-11-14T21:54:54.759Z,21.48
2022-11-14T21:57:21.497Z,21.71
2022-11-14T21:59:48.270Z,21.82
2022-11-14T22:02:33.507Z,21.92
2022-11-14T22:05:00.263Z,21.89
2022-11-14T22:07:27.246Z,22.00
2022-11-14T22:09:54.095Z,21.12
2022-11-14T22:12:20.982Z,17.82
2022-11-14T22:14:47.732Z,17.08
2022-11-14T22:17:14.477Z,19.31
2022-11-14T22:19:41.292Z,20.42
2022-11-14T22:22:08.125Z,20.85
2022-11-14T22:24:34.944Z,21.27
2022-11-14T22:27:01.779Z,21.53
2022-11-14T22:29:28.531Z,21.48
2022-11-14T22:31:56.705Z,21.66
2022-11-14T22:34:23.718Z,21.61
2022-11-14T22:36:50.507Z,21.69
2022-11-14T22:39:17.287Z,21.94
2022-11-14T22:41:44.101Z,21.94
2022-11-14T22:44:10.882Z,21.91
2022-11-14T22:46:37.642Z,21.92
2022-11-14T22:49:04.395Z,18.37
2022-11-14T22:51:31.744Z,17.13
2022-11-14T22:53:58.985Z,18.71
2022-11-14T22:56:25.731Z,20.15
2022-11-14T22:58:52.500Z,20.70
2022-11-14T23:01:19.258Z,20.94
2022-11-14T23:03:48.056Z,21.20
2022-11-14T23:06:14.968Z,21.49
2022-11-14T23:08:41.768Z,21.39
2022-11-14T23:11:08.582Z,21.42
2022-11-14T23:13:35.345Z,21.78
2022-11-14T23:16:02.102Z,21.79
2022-11-14T23:18:28.865Z,21.76
2022-11-14T23:20:55.626Z,21.86
2022-11-14T23:23:22.370Z,22.00
2022-11-14T23:25:49.184Z,21.74
2022-11-14T23:28:15.954Z,18.21
2022-11-14T23:30:42.763Z,17.11
2022-11-14T23:33:09.537Z,19.00
2022-11-14T23:35:36.291Z,20.33
2022-11-14T23:38:03.757Z,20.89
2022-11-14T23:40:30.524Z,21.12
2022-11-14T23:42:57.286Z,21.44
2022-11-14T23:45:24.042Z,21.58
2022-11-14T23:47:50.820Z,21.64
2022-11-14T23:50:17.574Z,21.56
2022-11-14T23:52:44.337Z,21.60
2022-11-14T23:55:11.113Z,21.85
2022-11-14T23:57:37.855Z,21.80
